Time;durP1;ratioP1;P1;durP2;ratioP2;P2;SDS_P1;SDS_P2;PMS_P1;PMS_P2;Temp;Humidity;BMP_temperature;BMP_pressure;BME280_temperature;BME280_humidity;BME280_pressure;Samples;Min_cycle;Max_cycle;Signal;HPM_P1;HPM_P2
2021/12/31 00:00:14;;;;;;;2.87;2.60;;;13.70;99.90;;;14.11;96.06;101282.63;4990904;28;21102;-67
2021/12/31 00:02:43;;;;;;;2.50;2.20;;;13.70;99.90;;;14.11;95.84;101283.47;4978575;28;20635;-67
2021/12/31 00:05:10;;;;;;;5.53;1.83;;;13.70;99.90;;;14.14;95.91;101283.22;4974976;28;20670;-66
2021/12/31 00:07:38;;;;;;;2.13;1.70;;;13.70;99.90;;;14.13;95.45;101281.56;4975346;28;20638;-66
2021/12/31 00:10:06;;;;;;;2.77;1.70;;;13.80;99.90;;;14.15;95.19;101287.53;4978571;28;20623;-66
2021/12/31 00:12:34;;;;;;;1.80;1.70;;;13.70;99.90;;;14.14;95.13;101287.66;4973312;28;20653;-66
2021/12/31 00:15:02;;;;;;;2.70;2.10;;;13.70;99.90;;;14.18;94.58;101289.09;4975251;28;20730;-66
2021/12/31 00:17:29;;;;;;;2.00;1.90;;;13.80;99.90;;;14.16;94.70;101297.06;4954125;28;20662;-66
2021/12/31 00:20:06;;;;;;;2.13;2.03;;;13.80;99.90;;;14.20;94.11;101295.06;4957661;28;20595;-66
2021/12/31 00:23:01;;;;;;;2.30;2.00;;;13.80;99.90;;;14.21;93.73;101288.84;4947299;29;20654;-66
2021/12/31 00:25:29;;;;;;;1.90;1.77;;;13.80;99.90;;;14.23;93.48;101292.19;4938429;29;20639;-66
2021/12/31 00:27:56;;;;;;;1.73;1.67;;;13.80;99.90;;;14.21;93.61;101294.94;4963552;28;20647;-66
2021/12/31 00:30:23;;;;;;;2.20;1.87;;;13.80;99.90;;;14.20;93.10;101285.41;4980765;28;20664;-66
2021/12/31 00:32:50;;;;;;;1.63;1.50;;;13.80;99.90;;;14.24;93.04;101296.50;4987289;28;20602;-66
2021/12/31 00:35:17;;;;;;;2.13;1.97;;;13.80;99.90;;;14.22;92.60;101288.75;4968809;28;20662;-66
2021/12/31 00:37:45;;;;;;;2.30;1.60;;;13.80;99.90;;;14.20;92.60;101287.19;4986667;28;20661;-66
2021/12/31 00:40:16;;;;;;;8.23;2.00;;;13.80;99.90;;;14.21;92.20;101291.47;4963785;28;21014;-66
2021/12/31 00:42:43;;;;;;;2.10;2.00;;;13.80;99.90;;;14.23;91.55;101294.81;4973310;28;20607;-66
2021/12/31 00:45:14;;;;;;;8.33;2.30;;;13.80;99.90;;;14.21;91.74;101288.84;4976555;23;20759;-70
2021/12/31 00:47:42;;;;;;;1.80;1.70;;;13.80;99.90;;;14.21;91.42;101296.72;4943951;29;20628;-71
2021/12/31 00:50:11;;;;;;;2.53;2.13;;;13.80;99.90;;;14.20;91.14;101298.53;4935471;29;20618;-71
2021/12/31 00:52:38;;;;;;;1.30;1.30;;;13.80;99.90;;;14.18;91.33;101291.72;4933476;29;21012;-73
2021/12/31 00:55:08;;;;;;;3.13;1.80;;;13.80;99.90;;;14.20;90.80;101293.28;4933868;29;20641;-73
2021/12/31 00:57:35;;;;;;;1.57;1.47;;;13.80;99.90;;;14.19;90.80;101290.75;4934141;29;20669;-73
2021/12/31 01:00:05;;;;;;;1.97;1.87;;;13.80;99.90;;;14.18;90.86;101291.72;4954079;29;20632;-73
2021/12/31 01:02:33;;;;;;;2.10;2.00;;;13.80;99.90;;;14.19;90.19;101290.75;4939397;28;20635;-72
2021/12/31 01:05:00;;;;;;;3.47;1.50;;;13.80;99.90;;;14.08;91.12;101290.72;4927111;29;20691;-73
2021/12/31 01:07:27;;;;;;;3.70;1.80;;;13.70;99.90;;;14.05;91.07;101286.56;4954793;28;20631;-71
2021/12/31 01:09:55;;;;;;;1.47;1.37;;;13.60;99.90;;;13.97;91.88;101287.13;4952622;29;21160;-73
2021/12/31 01:12:24;;;;;;;2.73;2.20;;;13.50;99.90;;;13.98;91.30;101283.56;4936121;29;20999;-72
2021/12/31 01:15:19;;;;;;;2.70;1.80;;;13.60;99.90;;;13.92;91.90;101281.41;4936058;29;21278;-71
2021/12/31 01:20:39;;;;;;;4.70;2.53;;;13.40;99.90;;;13.76;92.31;101280.88;4927676;29;20640;-72
2021/12/31 01:23:09;;;;;;;1.77;1.73;;;13.30;99.90;;;13.70;92.44;101281.34;4935250;29;20620;-72
2021/12/31 01:25:36;;;;;;;2.10;2.00;;;13.20;99.90;;;13.65;92.94;101286.09;4951654;29;21108;-74
2021/12/31 01:28:05;;;;;;;1.80;1.70;;;13.20;99.90;;;13.65;93.33;101290.53;4936055;29;20627;-72
2021/12/31 01:30:32;;;;;;;3.63;1.90;;;13.20;99.90;;;13.65;93.21;101286.09;4919999;29;21002;-71
2021/12/31 01:32:59;;;;;;;2.00;1.90;;;13.20;99.90;;;13.64;93.40;101284.44;4951995;29;20646;-71
2021/12/31 01:35:26;;;;;;;2.70;2.13;;;13.20;99.90;;;13.67;93.18;101286.81;4952105;29;20640;-73
2021/12/31 01:37:53;;;;;;;3.63;2.00;;;13.30;99.90;;;13.74;92.65;101287.19;4935165;29;20663;-73
2021/12/31 01:40:20;;;;;;;2.40;1.60;;;13.40;99.90;;;13.76;92.97;101286.13;4919606;29;20620;-71
2021/12/31 01:42:47;;;;;;;2.00;1.90;;;13.40;99.90;;;13.76;93.21;101291.38;4935350;29;20587;-72
2021/12/31 01:45:19;;;;;;;1.70;1.60;;;13.40;99.90;;;13.76;93.08;101301.03;4951460;28;20667;-74
2021/12/31 01:47:59;;;;;;;1.70;1.53;;;13.40;99.90;;;13.75;93.25;101289.72;4935573;29;20636;-73
2021/12/31 01:50:29;;;;;;;2.20;1.60;;;13.40;99.90;;;13.70;93.64;101302.31;4937266;29;21176;-74
2021/12/31 01:52:56;;;;;;;1.90;1.37;;;13.40;99.90;;;13.67;93.69;101310.41;4934943;29;20990;-74
2021/12/31 01:55:28;;;;;;;4.70;1.77;;;13.30;99.90;;;13.65;94.32;101306.25;4952635;29;20663;-72
2021/12/31 01:57:55;;;;;;;1.80;1.70;;;13.20;99.90;;;13.64;94.38;101308.03;4934643;29;20918;-74
2021/12/31 02:00:23;;;;;;;1.80;1.70;;;13.20;99.90;;;13.61;94.35;101313.47;4952017;29;20646;-73
2021/12/31 02:02:51;;;;;;;2.63;1.40;;;13.20;99.90;;;13.60;94.50;101313.59;4951929;29;20639;-70
2021/12/31 02:05:18;;;;;;;4.33;1.83;;;13.20;99.90;;;13.52;95.25;101306.28;4952789;29;20682;-71
2021/12/31 02:07:45;;;;;;;2.17;1.73;;;13.10;99.90;;;13.50;95.25;101310.81;4951371;29;20987;-72
2021/12/31 02:10:12;;;;;;;2.50;1.77;;;13.10;99.90;;;13.42;96.14;101301.84;4934546;29;20642;-73
2021/12/31 02:12:46;;;;;;;2.47;1.73;;;13.00;99.90;;;13.37;96.61;101306.59;4935837;29;20618;-72
2021/12/31 02:15:16;;;;;;;1.63;1.53;;;13.00;99.90;;;13.36;97.03;101302.28;4950685;29;21005;-72
2021/12/31 02:17:47;;;;;;;1.60;1.50;;;13.00;99.90;;;13.39;96.49;101310.78;4951297;29;20760;-71
2021/12/31 02:20:16;;;;;;;1.83;1.73;;;13.00;99.90;;;13.38;97.16;101311.72;4932239;29;20655;-72
2021/12/31 02:22:51;;;;;;;2.60;1.80;;;13.00;99.90;;;13.39;96.75;101313.41;4951620;29;20620;-71
2021/12/31 02:25:20;;;;;;;1.90;1.80;;;13.00;99.90;;;13.39;97.08;101313.41;4953741;28;20644;-74
2021/12/31 02:27:47;;;;;;;2.17;1.97;;;13.00;99.90;;;13.39;97.37;101313.41;4952296;29;20624;-73
2021/12/31 02:30:15;;;;;;;1.80;1.70;;;13.00;99.90;;;13.40;97.54;101308.97;4952197;29;21380;-71
2021/12/31 02:32:42;;;;;;;1.93;1.83;;;13.00;99.90;;;13.43;97.44;101312.22;4951935;29;20634;-71
2021/12/31 02:35:10;;;;;;;2.87;1.90;;;13.10;99.90;;;13.46;97.07;101304.13;4951750;29;20647;-74
2021/12/31 02:37:37;;;;;;;2.17;1.80;;;13.10;99.90;;;13.41;97.65;101300.19;4952141;29;20668;-70
2021/12/31 02:40:09;;;;;;;3.00;1.90;;;13.00;99.90;;;13.39;98.18;101302.91;4950367;29;20636;-71
2021/12/31 02:42:36;;;;;;;2.50;1.70;;;13.00;99.90;;;13.34;98.13;101305.03;4927157;29;20624;-73
2021/12/31 02:45:06;;;;;;;2.00;1.90;;;12.90;99.90;;;13.41;97.88;101315.91;4933575;29;21080;-74
2021/12/31 02:47:34;;;;;;;2.23;1.83;;;13.00;99.90;;;13.39;98.46;101309.94;4934435;29;20631;-73
2021/12/31 02:50:04;;;;;;;5.10;1.93;;;13.00;99.90;;;13.38;98.19;101311.72;4934054;29;20643;-73
2021/12/31 02:52:32;;;;;;;2.13;1.90;;;13.00;99.90;;;13.42;98.20;101318.41;4935759;29;20676;-73
2021/12/31 02:55:01;;;;;;;1.43;1.40;;;13.10;99.90;;;13.40;98.45;101316.84;4936579;29;20751;-72
2021/12/31 02:57:28;;;;;;;2.33;1.77;;;13.00;99.90;;;13.37;98.88;101310.06;4952334;28;20696;-73
2021/12/31 02:59:56;;;;;;;1.90;1.80;;;13.00;99.90;;;13.41;98.89;101305.41;4954374;29;20718;-73
2021/12/31 03:02:25;;;;;;;1.87;1.77;;;13.00;99.90;;;13.39;98.91;101308.16;4954618;29;20642;-70
2021/12/31 03:04:53;;;;;;;2.00;1.37;;;13.00;99.90;;;13.38;98.94;101301.22;4937283;29;20664;-71
2021/12/31 03:07:22;;;;;;;1.60;1.50;;;13.00;99.90;;;13.36;99.38;101305.75;4938171;29;20723;-73
2021/12/31 03:09:51;;;;;;;1.60;1.43;;;13.00;99.90;;;13.42;99.08;101307.91;4954081;29;20640;-73
2021/12/31 03:12:18;;;;;;;1.67;1.57;;;13.00;99.90;;;13.44;98.59;101308.66;4939850;29;20612;-74
2021/12/31 03:14:48;;;;;;;1.70;1.60;;;13.10;99.90;;;13.46;98.81;101309.38;4937210;29;20662;-72
2021/12/31 03:17:15;;;;;;;1.47;1.47;;;13.10;99.90;;;13.42;99.26;101309.69;4938851;29;20655;-72
2021/12/31 03:19:43;;;;;;;1.90;1.80;;;13.00;99.90;;;13.40;98.72;101304.56;4955372;28;20636;-74
2021/12/31 03:22:10;;;;;;;1.70;1.43;;;13.00;99.90;;;13.41;98.71;101308.03;4961079;28;20691;-73
2021/12/31 03:24:37;;;;;;;2.00;1.70;;;13.00;99.90;;;13.43;98.86;101308.75;4955174;29;20627;-73
2021/12/31 03:27:04;;;;;;;1.80;1.70;;;13.00;99.90;;;13.38;99.23;101305.63;4937006;29;20640;-73
2021/12/31 03:29:31;;;;;;;2.17;1.80;;;13.00;99.90;;;13.33;99.16;101295.47;4922998;29;20632;-73
2021/12/31 03:31:58;;;;;;;1.80;1.70;;;13.00;99.90;;;13.27;100.00;101302.97;4941886;29;20647;-70
2021/12/31 03:34:25;;;;;;;3.67;1.50;;;12.90;99.90;;;13.32;99.43;101301.69;4956274;29;20615;-72
2021/12/31 03:36:53;;;;;;;3.00;1.77;;;12.90;99.90;;;13.27;99.57;101298.56;4947774;29;20624;-74
2021/12/31 03:39:20;;;;;;;1.90;1.70;;;12.90;99.90;;;13.25;99.88;101297.81;4938220;29;20663;-73
2021/12/31 03:41:47;;;;;;;1.63;1.50;;;12.90;99.90;;;13.27;99.99;101295.94;4936973;29;20643;-73
2021/12/31 03:44:14;;;;;;;1.20;1.20;;;12.90;99.90;;;13.25;99.96;101295.19;4955273;29;20623;-70
2021/12/31 03:46:44;;;;;;;1.60;1.50;;;12.90;99.90;;;13.26;99.71;101296.88;4933192;29;20772;-74
2021/12/31 03:49:12;;;;;;;1.80;1.70;;;12.90;99.90;;;13.25;100.00;101292.59;4951261;29;20678;-71
2021/12/31 03:51:39;;;;;;;2.33;1.47;;;12.90;99.90;;;13.23;99.76;101297.94;4954526;29;20636;-74
2021/12/31 03:54:05;;;;;;;1.70;1.60;;;12.90;99.90;;;13.23;100.00;101299.72;4953851;29;20655;-71
2021/12/31 03:56:33;;;;;;;2.37;1.37;;;12.80;99.90;;;13.21;100.00;101288.50;4953803;29;20644;-71
2021/12/31 03:59:00;;;;;;;2.17;1.53;;;12.80;99.90;;;13.22;100.00;101293.63;4954931;29;20676;-74
2021/12/31 04:01:28;;;;;;;2.40;1.50;;;12.80;99.90;;;13.24;100.00;101293.56;4936806;29;20651;-72
2021/12/31 04:03:56;;;;;;;1.53;1.37;;;12.90;99.90;;;13.21;100.00;101299.84;4936646;29;21078;-71
2021/12/31 04:06:23;;;;;;;3.03;1.53;;;12.80;99.90;;;13.21;100.00;101291.97;4950558;29;20660;-74
2021/12/31 04:08:51;;;;;;;1.33;1.23;;;12.80;99.90;;;13.21;99.86;101296.38;4936084;29;20707;-74
2021/12/31 04:11:18;;;;;;;4.27;1.50;;;12.80;99.90;;;13.22;99.53;101285.78;4953797;29;21171;-72
2021/12/31 04:13:45;;;;;;;1.77;1.67;;;12.90;99.90;;;13.13;100.00;101285.63;4953564;29;20650;-73
2021/12/31 04:16:12;;;;;;;1.67;1.57;;;12.80;99.90;;;13.14;99.73;101284.66;4951237;29;20643;-72
2021/12/31 04:18:39;;;;;;;3.60;1.57;;;12.80;99.90;;;13.10;100.00;101283.22;4952234;29;20667;-71
2021/12/31 04:21:06;;;;;;;1.87;1.47;;;12.70;99.90;;;13.07;100.00;101278.22;4955372;29;20638;-72
2021/12/31 04:23:37;;;;;;;1.87;1.77;;;12.70;99.90;;;13.06;100.00;101272.13;4936601;29;20608;-73
2021/12/31 04:26:06;;;;;;;4.07;1.53;;;12.70;99.90;;;13.07;100.00;101275.59;4953391;29;20850;-74
2021/12/31 04:28:32;;;;;;;1.43;1.13;;;12.70;99.90;;;13.05;100.00;101267.00;4953419;29;20726;-73
2021/12/31 04:30:59;;;;;;;1.40;1.30;;;12.70;99.90;;;13.04;100.00;101266.16;4953446;29;20646;-73
2021/12/31 04:33:27;;;;;;;2.80;1.60;;;12.70;99.90;;;12.94;100.00;101259.88;4937319;29;20620;-72
2021/12/31 04:35:53;;;;;;;1.67;1.60;;;12.60;99.90;;;12.98;100.00;101260.50;4952197;29;21203;-74
2021/12/31 04:38:20;;;;;;;1.20;1.20;;;12.60;99.90;;;12.97;100.00;101264.88;4953497;29;21008;-72
2021/12/31 04:40:47;;;;;;;1.27;1.27;;;12.60;99.90;;;12.95;100.00;101255.47;4952703;29;20654;-72
2021/12/31 04:43:14;;;;;;;1.70;1.60;;;12.60;99.90;;;12.96;100.00;101251.91;4937319;29;20626;-73
2021/12/31 04:45:41;;;;;;;1.57;1.47;;;12.60;99.90;;;12.98;100.00;101250.00;4951829;28;20671;-74
2021/12/31 04:48:09;;;;;;;1.67;1.57;;;12.60;99.90;;;12.99;100.00;101247.28;4954394;29;20632;-72
2021/12/31 04:50:36;;;;;;;1.60;1.50;;;12.60;99.90;;;13.02;100.00;101248.84;4947258;29;21057;-71
2021/12/31 04:53:04;;;;;;;1.90;1.50;;;12.70;99.90;;;12.96;100.00;101241.44;4953622;29;20643;-74
2021/12/31 04:55:31;;;;;;;1.00;1.00;;;12.60;99.90;;;12.95;100.00;101239.75;4954127;29;20663;-73
2021/12/31 04:57:59;;;;;;;1.70;1.50;;;12.60;99.90;;;12.90;100.00;101236.63;4953065;29;20671;-71
2021/12/31 05:00:26;;;;;;;1.50;1.40;;;12.50;99.90;;;12.89;100.00;101242.81;4919062;29;20627;-73
2021/12/31 05:02:53;;;;;;;1.27;1.10;;;12.50;99.90;;;12.82;100.00;101229.31;4952916;29;20657;-74
2021/12/31 05:05:20;;;;;;;1.57;1.47;;;12.50;99.90;;;12.77;100.00;101230.59;4936080;29;20672;-73
2021/12/31 05:07:46;;;;;;;1.83;1.43;;;12.50;99.90;;;12.79;100.00;101233.94;4952522;29;20647;-71
2021/12/31 05:10:15;;;;;;;4.20;1.70;;;12.40;99.90;;;12.80;100.00;101230.41;4936511;29;21194;-71
2021/12/31 05:12:42;;;;;;;1.40;1.40;;;12.40;99.90;;;12.76;100.00;101232.38;4936559;29;20972;-70
2021/12/31 05:15:10;;;;;;;1.17;1.17;;;12.40;99.90;;;12.73;100.00;101229.16;4952920;29;20664;-74
2021/12/31 05:17:37;;;;;;;2.67;1.57;;;12.40;99.90;;;12.73;100.00;101229.16;4920226;29;20670;-74
2021/12/31 05:20:06;;;;;;;8.30;1.40;;;12.40;99.90;;;12.67;100.00;101226.97;4951414;28;21002;-71
2021/12/31 05:22:33;;;;;;;2.30;1.30;;;12.30;99.90;;;12.65;100.00;101221.81;4953066;29;20663;-72
2021/12/31 05:25:00;;;;;;;3.33;1.43;;;12.30;99.90;;;12.68;100.00;101229.47;4954667;29;21014;-74
2021/12/31 05:27:27;;;;;;;1.50;1.40;;;12.30;99.90;;;12.66;100.00;101228.75;4954659;29;20635;-72
2021/12/31 05:29:54;;;;;;;4.03;1.73;;;12.30;99.90;;;12.71;100.00;101238.91;4954606;29;21208;-73
2021/12/31 05:32:21;;;;;;;1.43;1.33;;;12.40;99.90;;;12.65;100.00;101232.28;4962891;28;21196;-71
2021/12/31 05:34:48;;;;;;;1.80;1.17;;;12.30;99.90;;;12.67;100.00;101233.03;4952736;28;20741;-74
2021/12/31 05:37:15;;;;;;;1.50;1.50;;;12.30;99.90;;;12.72;99.53;101240.56;4950209;29;20643;-71
2021/12/31 05:39:44;;;;;;;1.47;1.37;;;12.40;99.90;;;12.70;99.12;101224.13;4954416;29;21018;-71
2021/12/31 05:42:12;;;;;;;1.60;1.50;;;12.40;99.90;;;12.68;99.28;101229.47;4953329;29;20616;-74
2021/12/31 05:44:39;;;;;;;2.80;1.07;;;12.30;99.90;;;12.56;99.54;101235.59;4951774;29;21012;-73
2021/12/31 05:47:07;;;;;;;1.50;1.27;;;12.30;99.90;;;12.44;100.00;101232.03;4952406;29;20738;-71
2021/12/31 05:49:34;;;;;;;2.53;1.50;;;12.10;99.90;;;12.46;100.00;101226.69;4936546;29;20651;-71
2021/12/31 05:52:01;;;;;;;1.30;1.20;;;12.10;99.90;;;12.48;100.00;101226.59;4934549;29;20651;-73
2021/12/31 05:54:27;;;;;;;1.00;1.00;;;12.10;99.90;;;12.41;100.00;101234.84;4949205;29;20625;-73
2021/12/31 05:56:55;;;;;;;1.33;1.20;;;12.10;99.90;;;12.36;100.00;101238.75;4945552;29;20990;-71
2021/12/31 05:59:22;;;;;;;1.67;1.57;;;12.00;99.90;;;12.38;100.00;101247.34;4936933;29;20660;-74
2021/12/31 06:01:49;;;;;;;1.43;1.33;;;12.00;99.90;;;12.41;100.00;101244.50;4932979;29;20640;-73
2021/12/31 06:04:16;;;;;;;1.63;1.60;;;12.00;99.90;;;12.33;100.00;101245.03;4936742;28;20650;-71
2021/12/31 06:06:44;;;;;;;1.33;1.20;;;12.00;99.90;;;12.35;100.00;101248.38;4938190;28;20657;-70
2021/12/31 06:09:14;;;;;;;1.67;1.40;;;12.00;99.90;;;12.28;100.00;101255.00;4950446;28;20603;-71
2021/12/31 06:11:41;;;;;;;1.30;1.20;;;11.90;99.90;;;12.20;100.00;101257.28;4952714;28;20627;-74
2021/12/31 06:14:10;;;;;;;3.93;2.03;;;11.80;99.90;;;12.11;100.00;101257.09;4936453;29;20635;-71
2021/12/31 06:16:42;;;;;;;1.60;1.50;;;11.70;99.90;;;12.05;100.00;101244.44;4932927;29;20701;-72
2021/12/31 06:19:12;;;;;;;1.47;1.37;;;11.70;99.90;;;11.93;100.00;101245.25;4944998;29;20669;-71
2021/12/31 06:21:42;;;;;;;1.63;1.53;;;11.50;99.90;;;11.91;100.00;101253.22;4949248;29;20620;-73
2021/12/31 06:24:10;;;;;;;1.80;1.70;;;11.50;99.90;;;11.84;100.00;101244.09;4950009;29;20632;-72
2021/12/31 06:26:37;;;;;;;1.60;1.50;;;11.50;99.90;;;11.77;100.00;101242.84;4952427;29;20985;-72
2021/12/31 06:29:04;;;;;;;2.23;1.77;;;11.40;99.90;;;11.75;100.00;101238.66;4950901;29;20620;-71
2021/12/31 06:31:31;;;;;;;2.87;1.30;;;11.40;99.90;;;11.72;100.00;101244.94;4935083;29;20616;-70
2021/12/31 06:33:58;;;;;;;2.03;1.57;;;11.40;99.90;;;11.72;100.00;101244.09;4948743;29;20640;-73
2021/12/31 06:36:25;;;;;;;1.80;1.70;;;11.30;99.90;;;11.72;100.00;101241.47;4945370;29;20664;-71
2021/12/31 06:38:52;;;;;;;2.30;1.83;;;11.30;99.90;;;11.63;100.00;101235.03;4950591;29;20775;-73
2021/12/31 06:41:20;;;;;;;1.33;1.23;;;11.20;99.90;;;11.63;100.00;101240.28;4940580;29;20623;-72
2021/12/31 06:43:47;;;;;;;2.33;1.60;;;11.30;99.90;;;11.61;100.00;101235.16;4942006;29;20647;-73
2021/12/31 06:46:15;;;;;;;2.97;1.50;;;11.20;99.90;;;11.60;100.00;101240.50;4963775;23;20789;-66
2021/12/31 06:48:42;;;;;;;1.37;1.30;;;11.20;99.90;;;11.54;100.00;101235.69;4951872;28;21190;-66
2021/12/31 06:51:10;;;;;;;0.97;0.97;;;11.20;99.90;;;11.53;100.00;101228.75;4970424;28;20738;-66
2021/12/31 06:53:38;;;;;;;1.17;1.17;;;11.20;99.90;;;11.48;100.00;101247.34;4969402;28;21293;-66
2021/12/31 06:56:05;;;;;;;1.60;1.23;;;11.10;99.90;;;11.48;100.00;101238.69;4957033;28;21187;-66
2021/12/31 06:58:33;;;;;;;2.20;1.47;;;11.10;99.90;;;11.43;100.00;101241.63;4951880;29;20663;-66
2021/12/31 07:01:00;;;;;;;1.63;1.50;;;11.10;99.90;;;11.46;100.00;101237.94;4965666;28;20635;-66
2021/12/31 07:03:27;;;;;;;5.70;1.30;;;11.10;99.90;;;11.39;100.00;101240.13;4970759;28;20708;-66
2021/12/31 07:05:54;;;;;;;1.70;1.63;;;11.00;99.90;;;11.34;100.00;101251.81;4944840;28;20650;-66
2021/12/31 07:08:24;;;;;;;1.13;0.93;;;11.00;99.90;;;11.28;100.00;101239.16;4940060;28;21259;-66
2021/12/31 07:10:51;;;;;;;1.90;1.80;;;10.90;99.90;;;11.28;100.00;101252.22;4972692;28;20625;-67
2021/12/31 07:13:18;;;;;;;1.90;1.50;;;10.90;99.90;;;11.23;100.00;101241.22;4971581;28;21209;-66
2021/12/31 07:15:49;;;;;;;2.47;1.30;;;10.90;99.90;;;11.23;100.00;101246.44;4962431;28;21262;-67
2021/12/31 07:18:18;;;;;;;1.13;1.03;;;10.90;99.90;;;11.19;100.00;101231.91;4941163;28;20639;-66
2021/12/31 07:20:46;;;;;;;1.17;1.10;;;10.80;99.90;;;11.13;100.00;101224.47;4962746;28;20997;-65
2021/12/31 07:23:17;;;;;;;3.20;1.60;;;10.80;99.90;;;11.11;100.00;101224.59;4972989;28;21182;-65
2021/12/31 07:25:44;;;;;;;1.70;1.40;;;10.80;99.90;;;11.10;100.00;101245.56;4981622;28;20738;-65
2021/12/31 07:28:14;;;;;;;1.03;1.03;;;10.70;99.90;;;11.09;100.00;101243.91;4971370;28;20611;-65
2021/12/31 07:30:42;;;;;;;1.70;1.60;;;10.70;99.90;;;11.13;100.00;101253.22;4953746;28;20667;-65
2021/12/31 07:33:18;;;;;;;1.83;1.70;;;10.80;99.90;;;11.13;100.00;101245.38;4952938;28;21130;-65
2021/12/31 07:35:46;;;;;;;2.60;1.80;;;10.80;99.90;;;11.10;100.00;101245.56;4981887;28;20638;-65
2021/12/31 07:38:35;;;;;;;1.93;1.70;;;10.70;99.90;;;11.00;100.00;101239.25;4987314;28;20627;-66
2021/12/31 07:41:03;;;;;;;3.70;1.80;;;10.70;99.90;;;10.97;100.00;101244.69;4957573;28;20650;-65
2021/12/31 07:43:30;;;;;;;1.37;1.30;;;10.60;99.90;;;10.97;100.00;101235.06;4955098;28;20639;-66
2021/12/31 07:45:57;;;;;;;3.13;1.53;;;10.60;99.90;;;10.94;100.00;101241.31;4957399;28;20673;-66
2021/12/31 07:48:25;;;;;;;1.93;1.73;;;10.60;99.90;;;10.93;100.00;101236.19;4968564;28;20681;-66
2021/12/31 07:50:54;;;;;;;1.50;1.40;;;10.60;99.90;;;10.91;100.00;101235.47;4973048;28;21218;-66
2021/12/31 07:53:21;;;;;;;1.87;1.70;;;10.60;99.90;;;10.88;100.00;101241.72;4971907;28;21003;-66
2021/12/31 07:55:50;;;;;;;1.10;1.10;;;10.60;99.90;;;10.92;100.00;101240.56;4963187;28;21266;-65
2021/12/31 07:58:17;;;;;;;1.90;1.37;;;10.60;99.90;;;10.96;100.00;101236.03;4947137;28;21203;-65
2021/12/31 08:00:45;;;;;;;3.03;1.70;;;10.60;99.90;;;10.94;100.00;101233.47;4964341;28;20709;-66
2021/12/31 08:03:15;;;;;;;1.40;1.30;;;10.70;99.90;;;10.90;100.00;101236.41;4982710;28;20639;-66
2021/12/31 08:05:42;;;;;;;5.90;1.10;;;10.70;99.90;;;10.90;100.00;101236.41;4980123;28;20643;-65
2021/12/31 08:08:09;;;;;;;2.37;1.87;;;10.70;99.90;;;10.88;100.00;101233.88;4969197;28;20734;-66
2021/12/31 08:10:38;;;;;;;3.27;1.47;;;10.60;99.90;;;10.85;100.00;101239.31;4939075;29;20720;-65
2021/12/31 08:13:25;;;;;;;3.50;1.83;;;10.60;99.90;;;10.82;100.00;101241.25;4953564;28;21008;-66
2021/12/31 08:15:53;;;;;;;2.23;1.60;;;10.60;99.90;;;10.86;100.00;101237.53;4954809;29;20647;-66
2021/12/31 08:18:19;;;;;;;6.10;2.33;;;10.60;99.90;;;10.87;100.00;101229.59;4954152;28;20723;-66
2021/12/31 08:20:47;;;;;;;2.20;1.97;;;10.60;99.90;;;10.88;100.00;101230.44;4974013;28;20626;-66
2021/12/31 08:23:14;;;;;;;3.57;2.20;;;10.60;99.90;;;11.20;100.00;101237.03;4954886;29;20687;-67
2021/12/31 08:25:42;;;;;;;3.60;2.40;;;10.80;99.90;;;12.06;100.00;101239.09;4972207;28;20659;-67
2021/12/31 08:28:09;;;;;;;3.13;2.03;;;11.80;99.90;;;13.18;92.10;101249.44;4966972;28;20629;-66
2021/12/31 08:30:36;;;;;;;1.80;1.70;;;13.10;99.90;;;14.53;83.57;101256.56;4964654;28;20648;-65
2021/12/31 08:33:03;;;;;;;2.80;2.23;;;14.60;99.90;;;16.10;76.08;101266.38;4962050;28;20643;-65
2021/12/31 08:35:31;;;;;;;3.17;2.53;;;16.30;99.90;;;17.23;69.17;101261.66;4955645;28;20760;-65
2021/12/31 08:37:58;;;;;;;3.00;2.73;;;17.70;99.90;;;18.83;64.00;101259.78;4985852;28;21027;-67
2021/12/31 08:40:25;;;;;;;3.03;2.77;;;19.30;99.90;;;19.01;60.43;101254.53;4986780;28;20813;-66
2021/12/31 08:42:52;;;;;;;3.43;2.87;;;20.10;99.90;;;20.48;57.46;101259.00;4982005;28;21215;-65
2021/12/31 08:45:29;;;;;;;2.77;2.53;;;21.00;99.90;;;21.51;53.61;101260.28;4962455;28;20667;-66
2021/12/31 08:47:58;;;;;;;6.10;4.13;;;22.20;97.50;;;21.36;53.38;101251.31;4970713;28;20646;-66
2021/12/31 08:50:26;;;;;;;4.13;2.70;;;22.20;95.60;;;21.91;50.88;101256.81;4972642;28;20971;-69
2021/12/31 08:52:53;;;;;;;2.90;2.70;;;22.70;93.80;;;21.78;51.91;101245.00;4977489;28;21202;-66
2021/12/31 08:55:21;;;;;;;3.67;3.23;;;22.50;93.60;;;22.43;49.11;101251.84;4983561;28;20653;-66
2021/12/31 08:57:48;;;;;;;3.10;2.80;;;23.30;91.50;;;22.55;49.80;101244.34;4973394;28;21112;-64
2021/12/31 09:00:16;;;;;;;5.50;3.60;;;23.40;91.20;;;23.39;47.55;101249.69;4967478;28;20673;-65
2021/12/31 09:02:45;;;;;;;3.37;3.10;;;24.20;89.80;;;24.15;46.18;101252.22;4970105;28;20642;-65
2021/12/31 09:05:13;;;;;;;3.73;3.40;;;25.20;84.20;;;24.33;44.68;101255.31;4955828;28;21214;-65
2021/12/31 09:07:40;;;;;;;3.27;2.90;;;25.60;79.60;;;24.51;43.78;101255.78;4987115;28;20643;-69
2021/12/31 09:10:08;;;;;;;2.70;2.50;;;25.80;76.10;;;22.58;47.17;101255.44;4981089;28;20636;-69
2021/12/31 09:12:36;;;;;;;4.23;3.13;;;23.70;80.10;;;19.83;54.85;101248.00;4966878;28;20673;-66
2021/12/31 09:15:05;;;;;;;3.23;3.00;;;20.40;92.40;;;17.63;62.21;101256.28;4971311;28;20728;-64
2021/12/31 09:17:32;;;;;;;3.97;3.17;;;17.40;99.90;;;16.52;66.61;101249.59;4979680;28;21082;-67
2021/12/31 09:19:59;;;;;;;3.40;3.07;;;16.00;99.90;;;15.63;71.04;101256.41;4985866;28;21267;-69
2021/12/31 09:22:27;;;;;;;3.13;2.37;;;15.00;99.90;;;14.55;76.54;101259.88;4975101;28;21000;-67
2021/12/31 09:24:55;;;;;;;3.10;2.30;;;14.20;99.90;;;13.92;80.93;101260.44;4958258;28;20631;-66
2021/12/31 09:27:22;;;;;;;2.97;2.73;;;13.50;99.90;;;13.78;82.32;101265.03;4966600;28;20614;-67
2021/12/31 09:29:49;;;;;;;1.93;1.83;;;13.30;99.90;;;13.55;84.40;101258.88;4963191;28;21001;-65
2021/12/31 09:32:16;;;;;;;3.00;2.00;;;13.00;99.90;;;13.37;85.45;101249.78;4978163;28;20992;-66
2021/12/31 09:34:44;;;;;;;2.60;2.40;;;12.80;99.90;;;13.15;87.15;101253.13;4977246;28;20997;-64
2021/12/31 09:37:11;;;;;;;2.73;2.53;;;12.70;99.90;;;13.01;88.19;101249.81;4967617;28;20663;-69
2021/12/31 09:39:38;;;;;;;3.37;1.93;;;12.60;99.90;;;12.91;89.04;101248.78;4972096;28;20677;-66
2021/12/31 09:42:07;;;;;;;4.10;2.50;;;12.50;99.90;;;12.89;89.36;101245.44;4970901;28;21005;-67
2021/12/31 09:44:36;;;;;;;1.70;1.50;;;12.40;99.90;;;12.88;90.25;101235.91;4972223;28;20638;-68
2021/12/31 09:47:10;;;;;;;2.87;1.87;;;12.50;99.90;;;12.86;90.50;101225.53;4954113;28;21015;-66
2021/12/31 09:49:38;;;;;;;2.17;2.07;;;12.50;99.90;;;12.88;90.43;101223.66;4971349;28;20651;-66
2021/12/31 09:52:09;;;;;;;4.20;2.63;;;12.50;99.90;;;12.76;91.84;101218.44;4972130;28;21170;-66
2021/12/31 09:54:48;;;;;;;3.43;2.27;;;12.40;99.90;;;12.74;91.63;101225.56;4955349;28;20623;-66
2021/12/31 09:57:20;;;;;;;3.00;2.10;;;12.30;99.90;;;12.62;92.20;101229.91;4972948;28;20663;-66
2021/12/31 09:59:47;;;;;;;3.90;2.13;;;12.30;99.90;;;12.72;92.28;101222.22;4922799;29;21032;-65
2021/12/31 10:02:15;;;;;;;3.93;2.70;;;12.30;99.90;;;12.76;92.28;101218.44;4963188;28;20641;-66
2021/12/31 10:04:58;;;;;;;2.70;2.50;;;12.40;99.90;;;12.79;92.08;101215.63;4956742;28;20623;-66
2021/12/31 10:07:28;;;;;;;5.87;2.63;;;12.40;99.90;;;12.79;92.51;101224.31;4954076;28;20635;-66
2021/12/31 10:10:12;;;;;;;2.37;1.37;;;12.40;99.90;;;12.71;92.37;101233.66;4975234;28;20644;-66
2021/12/31 10:12:50;;;;;;;3.90;2.40;;;12.30;99.90;;;12.75;92.25;101216.78;4955261;28;20738;-66
2021/12/31 10:15:21;;;;;;;2.57;1.53;;;12.40;99.90;;;12.69;92.01;101219.84;4969931;28;20754;-66
2021/12/31 10:17:48;;;;;;;3.70;1.80;;;12.40;99.90;;;12.71;92.04;101223.19;4971945;28;20621;-66